Time;durP1;ratioP1;P1;durP2;ratioP2;P2;SDS_P1;SDS_P2;PMS_P1;PMS_P2;Temp;Humidity;BMP_temperature;BMP_pressure;BME280_temperature;BME280_humidity;BME280_pressure;Samples;Min_cycle;Max_cycle;Signal;HPM_P1;HPM_P2
2023/07/27 00:00:35;;;;;;;9.45;8.20;;;;;;;19.29;56.62;93266.41;5066389;28;20040;-73
2023/07/27 00:03:01;;;;;;;10.20;7.80;;;;;;;19.18;57.32;93257.50;5067033;28;20054;-73
2023/07/27 00:05:27;;;;;;;9.30;8.30;;;;;;;18.79;59.45;93263.53;5084864;28;20032;-73
2023/07/27 00:07:52;;;;;;;9.73;8.80;;;;;;;18.54;60.93;93261.81;5065304;28;20033;-72
2023/07/27 00:10:20;;;;;;;10.30;9.20;;;;;;;18.48;62.21;93287.56;5068652;28;20045;-72
2023/07/27 00:12:45;;;;;;;11.05;9.98;;;;;;;17.95;64.70;93291.38;5064630;28;20044;-72
2023/07/27 00:15:11;;;;;;;10.38;9.35;;;;;;;18.04;64.32;93283.75;5072211;28;20028;-74
2023/07/27 00:17:36;;;;;;;11.32;10.13;;;;;;;18.15;63.53;93294.63;5069962;28;20024;-72
2023/07/27 00:20:02;;;;;;;10.05;8.38;;;;;;;18.22;61.58;93288.53;5067056;28;20039;-72
2023/07/27 00:22:27;;;;;;;8.68;7.78;;;;;;;18.21;61.24;93292.34;5063357;28;20032;-72
2023/07/27 00:24:53;;;;;;;9.50;8.50;;;;;;;18.28;60.59;93276.28;5068088;28;20042;-73
2023/07/27 00:27:18;;;;;;;10.82;7.95;;;;;;;18.23;60.00;93269.31;5063870;28;20043;-72
2023/07/27 00:29:44;;;;;;;8.80;6.80;;;;;;;18.19;59.38;93273.09;5066285;28;20107;-74
2023/07/27 00:32:09;;;;;;;9.73;6.93;;;;;;;18.22;58.98;93272.38;5066460;28;20546;-73
2023/07/27 00:34:34;;;;;;;7.10;6.28;;;;;;;18.20;58.37;93272.75;5066205;28;20064;-73
2023/07/27 00:37:00;;;;;;;7.47;6.60;;;;;;;18.11;58.65;93271.50;5064854;28;20064;-73
2023/07/27 00:39:25;;;;;;;6.22;5.63;;;;;;;18.02;59.06;93264.53;5070085;28;20138;-73
2023/07/27 00:41:50;;;;;;;9.25;7.13;;;;;;;18.03;58.72;93270.69;5060295;28;20028;-72
2023/07/27 00:44:16;;;;;;;7.57;5.80;;;;;;;18.15;58.04;93269.63;5069429;28;20092;-72
2023/07/27 00:46:42;;;;;;;6.20;5.53;;;;;;;18.35;57.43;93276.31;5066147;28;20086;-72
2023/07/27 00:49:08;;;;;;;8.48;5.68;;;;;;;18.31;56.78;93243.22;5068653;28;20037;-72
2023/07/27 00:51:39;;;;;;;6.15;5.55;;;;;;;18.36;56.59;93272.47;5065081;28;20042;-71
2023/07/27 00:54:07;;;;;;;7.20;6.03;;;;;;;18.38;56.40;93264.81;5067486;28;20131;-72
2023/07/27 00:56:33;;;;;;;6.78;5.25;;;;;;;17.99;57.19;93281.41;5065063;28;20441;-72
2023/07/27 00:58:59;;;;;;;5.70;5.05;;;;;;;17.99;57.17;93262.59;5065941;28;20036;-72
2023/07/27 01:01:26;;;;;;;7.32;5.13;;;;;;;17.87;57.12;93272.84;5066616;28;21570;-72
2023/07/27 01:03:52;;;;;;;5.32;4.25;;;;;;;17.98;56.93;93284.50;5064215;28;20033;-72
2023/07/27 01:06:17;;;;;;;8.30;5.30;;;;;;;17.96;56.44;93270.63;5065955;28;20039;-73
2023/07/27 01:08:43;;;;;;;5.43;4.57;;;;;;;17.86;56.21;93276.66;5068160;28;20032;-73
2023/07/27 01:11:26;;;;;;;7.10;4.78;;;;;;;17.74;56.21;93285.81;5064458;28;20528;-72
2023/07/27 01:14:07;;;;;;;4.68;4.15;;;;;;;17.83;55.74;93297.03;5060173;28;20080;-72
2023/07/27 01:16:51;;;;;;;4.57;3.70;;;;;;;17.75;55.80;93287.31;5067669;28;20063;-72
2023/07/27 01:19:19;;;;;;;6.47;3.65;;;;;;;17.82;55.51;93300.84;5066906;28;20115;-73
2023/07/27 01:21:49;;;;;;;2.72;2.40;;;;;;;17.85;55.23;93296.63;5065492;28;20059;-72
2023/07/27 01:24:48;;;;;;;3.42;2.90;;;;;;;17.99;54.80;93297.56;5067503;28;20055;-73
2023/07/27 01:27:30;;;;;;;3.15;2.55;;;;;;;17.99;54.54;93302.94;5066858;28;20044;-73
2023/07/27 01:30:28;;;;;;;2.13;1.92;;;;;;;17.87;54.32;93303.19;5066660;28;20035;-73
2023/07/27 01:33:04;;;;;;;2.78;2.13;;;;;;;17.89;54.25;93302.84;5051918;28;20051;-72
2023/07/27 01:35:38;;;;;;;2.33;2.13;;;;;;;17.87;54.30;93291.66;5069017;28;20031;-72
2023/07/27 01:38:04;;;;;;;2.88;2.20;;;;;;;17.77;54.55;93295.81;5065520;28;20048;-73
2023/07/27 01:40:33;;;;;;;3.00;2.25;;;;;;;17.83;54.27;93297.03;5068666;28;20036;-73
2023/07/27 01:43:00;;;;;;;2.85;2.50;;;;;;;17.70;54.36;93306.47;5064699;28;20031;-72
2023/07/27 01:45:26;;;;;;;2.88;2.67;;;;;;;17.70;54.96;93309.16;5065763;28;20759;-72
2023/07/27 01:47:53;;;;;;;2.35;2.13;;;;;;;17.73;54.52;93305.75;5067218;28;20035;-72
2023/07/27 01:50:19;;;;;;;2.50;2.30;;;;;;;17.69;54.49;93302.28;5067658;28;20104;-72
2023/07/27 01:52:46;;;;;;;3.58;3.25;;;;;;;17.30;55.21;93304.56;5066989;28;20046;-74
2023/07/27 01:55:15;;;;;;;3.17;2.88;;;;;;;17.24;55.41;93295.25;5067268;28;20039;-72
2023/07/27 01:57:42;;;;;;;2.97;2.67;;;;;;;17.10;55.82;93311.97;5062762;28;20033;-72
2023/07/27 02:00:09;;;;;;;4.32;3.15;;;;;;;16.91;56.56;93312.13;5065721;28;20044;-72
2023/07/27 02:02:35;;;;;;;3.72;3.42;;;;;;;16.90;56.67;93321.31;5068595;28;20032;-72
2023/07/27 02:05:01;;;;;;;3.92;3.60;;;;;;;17.02;56.27;93313.00;5066326;28;20044;-73
2023/07/27 02:07:27;;;;;;;3.33;3.03;;;;;;;17.07;55.73;93328.81;5065747;28;20080;-72
2023/07/27 02:09:52;;;;;;;4.10;3.38;;;;;;;17.04;56.08;93324.16;5065532;28;20044;-73
2023/07/27 02:12:30;;;;;;;6.00;3.75;;;;;;;16.84;56.71;93330.81;5066188;28;20028;-72
2023/07/27 02:15:03;;;;;;;4.40;4.00;;;;;;;16.56;57.90;93325.06;5065508;28;20059;-73
2023/07/27 02:17:39;;;;;;;5.20;4.15;;;;;;;16.72;57.67;93325.66;5064877;28;20554;-72
2023/07/27 02:20:10;;;;;;;5.05;4.30;;;;;;;16.89;57.42;93338.56;5067565;28;20044;-73
2023/07/27 02:22:37;;;;;;;5.25;4.75;;;;;;;16.58;57.78;93334.28;5066536;28;20032;-72
2023/07/27 02:25:04;;;;;;;6.85;4.60;;;;;;;16.50;58.73;93343.38;5073259;28;20050;-72
2023/07/27 02:27:29;;;;;;;4.85;4.35;;;;;;;16.60;58.68;93352.72;5070370;28;20031;-72
2023/07/27 02:29:55;;;;;;;5.60;5.10;;;;;;;16.64;58.50;93340.13;5070047;28;20536;-72
2023/07/27 02:32:20;;;;;;;6.45;5.63;;;;;;;16.63;58.44;93342.03;5066809;28;20039;-72
2023/07/27 02:34:46;;;;;;;5.78;5.28;;;;;;;16.34;59.05;93318.59;5063792;28;20425;-72
2023/07/27 02:37:11;;;;;;;7.25;6.60;;;;;;;16.58;58.30;93344.25;5068757;28;20074;-72
2023/07/27 02:39:36;;;;;;;7.05;6.35;;;;;;;16.46;57.89;93347.13;5066461;28;20119;-74
2023/07/27 02:42:02;;;;;;;10.55;7.18;;;;;;;16.47;58.11;93348.69;5064854;28;20044;-71
2023/07/27 02:44:27;;;;;;;6.97;6.28;;;;;;;16.52;57.39;93351.06;5066420;28;20470;-74
2023/07/27 02:46:52;;;;;;;13.63;9.15;;;;;;;16.53;57.37;93358.75;5066614;28;20577;-73
2023/07/27 02:49:18;;;;;;;7.40;6.70;;;;;;;16.38;57.78;93366.97;5065267;28;20066;-73
2023/07/27 02:51:43;;;;;;;7.57;6.88;;;;;;;16.53;56.64;93357.97;5066813;28;20395;-73
2023/07/27 02:54:08;;;;;;;8.20;7.40;;;;;;;16.40;57.14;93370.81;5066919;28;20041;-74
2023/07/27 02:56:34;;;;;;;8.20;7.43;;;;;;;16.35;56.73;93378.41;5065172;28;20032;-73
2023/07/27 02:58:59;;;;;;;7.07;6.28;;;;;;;15.98;58.32;93399.59;5062380;28;20119;-73
2023/07/27 03:01:24;;;;;;;9.98;7.68;;;;;;;15.92;57.95;93393.75;5067490;28;20076;-73
2023/07/27 03:03:50;;;;;;;7.95;7.35;;;;;;;15.95;58.09;93419.06;5069443;28;20028;-73
2023/07/27 03:06:16;;;;;;;8.40;7.57;;;;;;;15.87;57.60;93408.22;5065869;28;20423;-74
2023/07/27 03:08:41;;;;;;;7.57;6.88;;;;;;;16.00;57.13;93405.38;5070469;28;20378;-73
2023/07/27 03:11:06;;;;;;;7.47;6.88;;;;;;;16.08;56.58;93418.56;5068700;28;20060;-73
2023/07/27 03:13:32;;;;;;;6.85;6.25;;;;;;;16.02;56.07;93393.16;5070138;28;20041;-73
2023/07/27 03:15:59;;;;;;;7.68;7.07;;;;;;;16.37;55.55;93424.44;5066305;28;20127;-73
2023/07/27 03:18:25;;;;;;;7.28;6.68;;;;;;;16.35;54.90;93426.69;5070441;28;20127;-73
2023/07/27 03:20:51;;;;;;;7.15;6.47;;;;;;;16.24;54.10;93421.91;5069411;28;20392;-73
2023/07/27 03:23:16;;;;;;;6.90;6.30;;;;;;;16.21;54.30;93406.53;5067475;28;20315;-72
2023/07/27 03:25:41;;;;;;;7.70;7.00;;;;;;;16.27;54.18;93426.56;5068192;28;20040;-73
2023/07/27 03:28:08;;;;;;;6.80;6.20;;;;;;;16.28;53.16;93425.41;5065615;28;20040;-74
2023/07/27 03:30:40;;;;;;;9.27;7.63;;;;;;;16.37;52.92;93424.44;5068189;28;20098;-73
2023/07/27 03:33:06;;;;;;;7.10;6.50;;;;;;;16.27;52.48;93417.75;5067840;28;20407;-73
2023/07/27 03:35:35;;;;;;;6.70;6.10;;;;;;;16.19;52.36;93408.78;5071374;28;20036;-74
2023/07/27 03:38:00;;;;;;;7.03;6.43;;;;;;;16.14;51.82;93406.38;5068674;28;20119;-73
2023/07/27 03:40:26;;;;;;;6.30;5.80;;;;;;;15.99;51.69;93404.59;5067465;28;20116;-73
2023/07/27 03:42:51;;;;;;;7.18;6.47;;;;;;;16.15;51.69;93405.25;5067488;28;20028;-73
2023/07/27 03:45:17;;;;;;;6.53;6.00;;;;;;;16.31;51.37;93427.44;5068244;28;20044;-74
2023/07/27 03:47:43;;;;;;;6.53;6.03;;;;;;;16.25;50.14;93415.41;5067516;28;20142;-73
2023/07/27 03:50:09;;;;;;;5.38;4.93;;;;;;;16.30;49.87;93435.78;5067747;28;20012;-73
2023/07/27 03:52:35;;;;;;;4.80;4.40;;;;;;;15.99;50.50;93442.13;5068112;28;20039;-73
2023/07/27 03:55:01;;;;;;;5.10;4.70;;;;;;;16.18;49.93;93444.78;5068447;28;20036;-74
2023/07/27 03:57:26;;;;;;;6.03;5.18;;;;;;;16.22;50.12;93445.63;5069678;28;20101;-74
2023/07/27 03:59:57;;;;;;;4.25;3.85;;;;;;;16.27;49.34;93447.25;5067751;28;20030;-74
2023/07/27 04:02:24;;;;;;;4.47;3.92;;;;;;;16.03;49.86;93444.91;5068880;28;20028;-74
2023/07/27 04:04:49;;;;;;;5.65;5.13;;;;;;;16.09;50.07;93454.97;5066566;28;20040;-74
2023/07/27 04:07:15;;;;;;;4.75;4.35;;;;;;;16.17;49.63;93464.72;5067687;28;20035;-73
2023/07/27 04:09:42;;;;;;;4.53;4.10;;;;;;;16.06;49.68;93452.22;5067037;28;20498;-73
2023/07/27 04:12:07;;;;;;;4.75;4.40;;;;;;;15.93;50.31;93470.41;5069364;28;20496;-73
2023/07/27 04:14:33;;;;;;;3.85;3.47;;;;;;;15.75;50.10;93463.91;5067245;28;20050;-74
2023/07/27 04:16:58;;;;;;;4.60;4.20;;;;;;;16.12;49.96;93478.41;5066585;28;21564;-73
2023/07/27 04:19:23;;;;;;;4.88;3.50;;;;;;;16.11;48.95;93471.50;5067336;28;20065;-74
2023/07/27 04:21:49;;;;;;;4.20;3.80;;;;;;;16.10;48.97;93480.66;5071855;28;20067;-74
2023/07/27 04:24:14;;;;;;;3.40;3.20;;;;;;;15.89;49.47;93501.72;5063809;28;20512;-74
2023/07/27 04:26:39;;;;;;;3.28;3.03;;;;;;;15.92;48.80;93490.28;5069095;28;20454;-73
2023/07/27 04:29:05;;;;;;;3.45;2.90;;;;;;;16.00;48.17;93501.91;5070010;28;20371;-73
2023/07/27 04:31:30;;;;;;;2.80;2.60;;;;;;;15.82;48.42;93501.59;5067461;28;20049;-73
2023/07/27 04:33:56;;;;;;;2.70;2.50;;;;;;;15.80;48.59;93509.19;5064609;28;20087;-73
2023/07/27 04:36:21;;;;;;;2.90;2.67;;;;;;;15.82;48.72;93517.66;5064200;28;20039;-72
2023/07/27 04:38:47;;;;;;;4.93;2.40;;;;;;;15.55;48.84;93515.97;5065885;28;20067;-74
2023/07/27 04:41:13;;;;;;;6.93;3.50;;;;;;;15.27;49.63;93518.75;5067491;28;20622;-74
2023/07/27 04:43:38;;;;;;;2.95;2.33;;;;;;;15.17;49.86;93530.78;5067192;28;20116;-73
2023/07/27 04:46:04;;;;;;;3.67;2.40;;;;;;;15.41;49.59;93535.94;5067080;28;20036;-74
2023/07/27 04:48:29;;;;;;;3.10;2.90;;;;;;;15.38;49.84;93530.50;5067142;28;20415;-74
2023/07/27 04:50:54;;;;;;;4.32;2.58;;;;;;;15.54;49.27;93525.13;5070731;28;20036;-74
2023/07/27 04:53:20;;;;;;;2.92;2.72;;;;;;;15.54;48.89;93517.88;5066884;28;20028;-73
2023/07/27 04:55:46;;;;;;;6.25;2.58;;;;;;;15.64;49.29;93537.97;5069261;28;20835;-73
2023/07/27 04:58:11;;;;;;;3.03;2.75;;;;;;;15.51;49.29;93518.56;5067626;28;20037;-73
2023/07/27 05:00:37;;;;;;;4.40;2.67;;;;;;;15.57;50.30;93529.78;5068182;28;20483;-73
2023/07/27 05:03:02;;;;;;;3.03;2.83;;;;;;;15.48;50.68;93518.47;5063123;28;20178;-73
2023/07/27 05:05:28;;;;;;;2.90;2.70;;;;;;;15.45;50.37;93530.66;5066400;28;20028;-73
2023/07/27 05:07:53;;;;;;;3.42;2.28;;;;;;;15.36;49.85;93544.22;5068349;28;20498;-73
2023/07/27 05:10:18;;;;;;;2.75;2.55;;;;;;;15.33;50.66;93528.09;5067806;28;20561;-74
2023/07/27 05:12:44;;;;;;;2.50;2.30;;;;;;;15.38;50.04;93541.22;5065845;28;20036;-74
2023/07/27 05:15:09;;;;;;;3.15;2.95;;;;;;;15.24;50.25;93549.72;5069773;28;20239;-74
2023/07/27 05:17:35;;;;;;;5.53;2.80;;;;;;;15.22;50.41;93560.00;5064603;28;20024;-73
2023/07/27 05:20:01;;;;;;;3.30;3.10;;;;;;;15.09;50.59;93561.22;5067497;28;20435;-73
2023/07/27 05:22:27;;;;;;;3.78;2.72;;;;;;;15.16;50.28;93569.41;5067730;28;20044;-74
2023/07/27 05:24:52;;;;;;;4.50;3.00;;;;;;;15.17;49.60;93562.94;5059455;28;20036;-73
2023/07/27 05:27:18;;;;;;;4.43;2.83;;;;;;;15.32;49.41;93570.19;5069393;28;20028;-73
2023/07/27 05:29:43;;;;;;;5.32;3.38;;;;;;;15.19;49.05;93566.06;5065622;28;20024;-74
2023/07/27 05:32:09;;;;;;;2.78;2.58;;;;;;;15.20;49.17;93572.19;5067392;28;20016;-73
2023/07/27 05:34:34;;;;;;;3.17;2.70;;;;;;;15.05;49.33;93555.00;5066461;28;20201;-74
2023/07/27 05:37:00;;;;;;;4.72;3.58;;;;;;;15.18;49.20;93571.75;5066865;28;20040;-73
2023/07/27 05:39:27;;;;;;;3.22;3.03;;;;;;;15.22;50.08;93581.41;5070218;28;20060;-73
2023/07/27 05:41:53;;;;;;;4.20;3.13;;;;;;;15.26;49.49;93566.19;5077563;28;20020;-73
2023/07/27 05:44:18;;;;;;;5.88;3.03;;;;;;;15.23;49.44;93572.25;5072770;28;20101;-74
2023/07/27 05:46:44;;;;;;;3.15;2.88;;;;;;;15.29;49.11;93583.50;5068436;28;20066;-73
2023/07/27 05:49:09;;;;;;;3.00;2.80;;;;;;;15.16;49.16;93584.69;5064211;28;20036;-73
2023/07/27 05:51:35;;;;;;;3.70;3.00;;;;;;;15.10;49.20;93578.06;5063106;28;20036;-73
2023/07/27 05:54:00;;;;;;;3.30;3.00;;;;;;;15.22;49.79;93592.13;5070473;28;20032;-74
2023/07/27 05:56:27;;;;;;;3.10;2.90;;;;;;;15.34;49.63;93599.31;5077115;28;20070;-75
2023/07/27 05:58:52;;;;;;;2.75;2.55;;;;;;;15.31;48.86;93605.34;5063114;28;20039;-72
2023/07/27 06:01:17;;;;;;;2.80;2.65;;;;;;;15.29;48.80;93608.38;5065271;28;20039;-73
2023/07/27 06:03:43;;;;;;;2.75;2.55;;;;;;;15.26;48.57;93608.28;5062841;27;20089;-73
2023/07/27 06:06:09;;;;;;;2.90;2.70;;;;;;;15.32;48.08;93617.63;5063829;28;20545;-72
2023/07/27 06:08:34;;;;;;;2.63;2.30;;;;;;;15.17;48.75;93594.28;5063975;28;20545;-72
2023/07/27 06:11:04;;;;;;;2.95;2.42;;;;;;;15.21;48.32;93612.00;5062334;28;20048;-74
2023/07/27 06:13:31;;;;;;;3.88;2.30;;;;;;;15.12;48.10;93618.66;5063069;28;20044;-72
2023/07/27 06:15:56;;;;;;;4.32;2.70;;;;;;;15.22;47.04;93607.44;5068103;28;20109;-73
2023/07/27 06:18:21;;;;;;;3.58;2.83;;;;;;;15.37;48.09;93604.75;5061264;28;20120;-74
2023/07/27 06:20:47;;;;;;;3.13;2.25;;;;;;;15.47;46.26;93603.47;5064021;28;20146;-75
2023/07/27 06:23:12;;;;;;;2.75;2.28;;;;;;;15.34;46.57;93586.69;5066119;28;20012;-73
2023/07/27 06:25:44;;;;;;;1.90;1.80;;;;;;;15.54;45.96;93603.63;5063812;28;20311;-74
2023/07/27 06:28:10;;;;;;;4.90;2.25;;;;;;;15.40;46.52;93582.59;5062868;28;20033;-74
2023/07/27 06:30:37;;;;;;;4.57;2.30;;;;;;;15.76;47.05;93611.00;5065179;28;20041;-73
2023/07/27 06:33:03;;;;;;;2.42;2.05;;;;;;;15.88;46.38;93607.44;5064854;28;20031;-73
2023/07/27 06:35:28;;;;;;;2.30;2.10;;;;;;;16.05;46.29;93607.03;5060310;28;20036;-73
2023/07/27 06:37:54;;;;;;;2.17;2.05;;;;;;;16.21;45.85;93588.19;5063762;28;20159;-74
2023/07/27 06:40:19;;;;;;;3.50;2.10;;;;;;;16.37;44.59;93580.88;5064713;28;20494;-74
2023/07/27 06:42:45;;;;;;;2.85;1.77;;;;;;;16.57;43.71;93595.84;5064804;28;20055;-74
2023/07/27 06:45:10;;;;;;;2.63;1.65;;;;;;;16.57;42.90;93600.44;5065015;28;20523;-74
2023/07/27 06:47:36;;;;;;;1.77;1.65;;;;;;;16.53;43.29;93578.09;5066484;28;20032;-73
2023/07/27 06:50:02;;;;;;;1.60;1.50;;;;;;;16.72;42.49;93588.81;5064011;28;20035;-73
2023/07/27 06:52:27;;;;;;;2.53;1.58;;;;;;;16.97;42.21;93576.56;5064271;28;20048;-73
2023/07/27 06:54:52;;;;;;;1.60;1.50;;;;;;;16.84;41.78;93556.41;5065290;28;20036;-73
2023/07/27 06:57:18;;;;;;;3.22;2.10;;;;;;;16.92;41.98;93579.56;5064770;28;20056;-72
2023/07/27 06:59:43;;;;;;;6.65;2.00;;;;;;;16.92;41.94;93570.72;5065561;28;20036;-73
2023/07/27 07:02:09;;;;;;;4.55;2.17;;;;;;;17.02;41.49;93572.81;5062881;28;20100;-73
2023/07/27 07:04:34;;;;;;;4.80;1.98;;;;;;;16.89;41.36;93558.78;5067495;28;20048;-75
2023/07/27 07:06:59;;;;;;;4.20;2.00;;;;;;;17.07;41.73;93548.31;5064403;28;20136;-72
2023/07/27 07:09:25;;;;;;;2.67;1.60;;;;;;;17.05;40.71;93546.03;5066364;28;20063;-74
2023/07/27 07:11:50;;;;;;;2.65;1.40;;;;;;;17.06;39.91;93546.78;5067837;28;20474;-73
2023/07/27 07:14:16;;;;;;;5.95;2.15;;;;;;;16.75;40.49;93574.66;5067559;28;20505;-72
2023/07/27 07:16:42;;;;;;;7.90;1.70;;;;;;;16.77;41.07;93581.22;5066541;28;20029;-73
2023/07/27 07:19:07;;;;;;;8.25;1.85;;;;;;;16.90;40.15;93581.84;5064845;28;20044;-74
2023/07/27 07:21:32;;;;;;;1.98;1.35;;;;;;;17.09;40.73;93579.09;5064674;28;20040;-73
2023/07/27 07:23:58;;;;;;;3.65;1.42;;;;;;;16.97;40.74;93584.63;5060250;28;20023;-74
2023/07/27 07:26:24;;;;;;;5.88;2.03;;;;;;;16.89;41.57;93576.81;5064085;28;20437;-74
2023/07/27 07:28:49;;;;;;;1.75;1.27;;;;;;;16.89;40.62;93564.16;5061525;28;20036;-73
2023/07/27 07:31:15;;;;;;;6.13;1.50;;;;;;;17.04;41.19;93565.16;5062948;28;20041;-73
2023/07/27 07:33:40;;;;;;;3.05;1.40;;;;;;;16.95;41.61;93564.66;5062516;28;20131;-73
2023/07/27 07:36:06;;;;;;;5.45;1.83;;;;;;;16.92;41.65;93557.28;5065426;28;20375;-74
2023/07/27 07:38:31;;;;;;;3.13;1.98;;;;;;;17.16;41.85;93557.72;5064231;28;20031;-74
2023/07/27 07:40:57;;;;;;;8.13;2.15;;;;;;;17.27;41.82;93570.53;5065827;28;20048;-73
2023/07/27 07:43:22;;;;;;;3.10;1.40;;;;;;;17.39;41.04;93570.38;5065748;28;20038;-73
2023/07/27 07:45:47;;;;;;;2.60;1.40;;;;;;;17.48;40.43;93573.56;5063672;28;20123;-73
2023/07/27 07:48:13;;;;;;;1.35;1.23;;;;;;;17.34;40.46;93567.97;5067258;28;20115;-73
2023/07/27 07:50:38;;;;;;;2.83;1.27;;;;;;;17.33;40.60;93571.81;5069175;28;20028;-73
2023/07/27 07:53:05;;;;;;;4.53;1.65;;;;;;;17.52;41.43;93577.06;5068745;28;21120;-73
2023/07/27 07:55:35;;;;;;;2.03;1.50;;;;;;;17.41;40.69;93584.19;5065354;28;20036;-73
2023/07/27 07:58:00;;;;;;;1.90;1.70;;;;;;;17.24;40.53;93573.97;5065935;28;20083;-73
2023/07/27 08:00:25;;;;;;;3.85;2.20;;;;;;;17.18;40.72;93566.22;5068340;28;20033;-74
2023/07/27 08:02:51;;;;;;;1.80;1.63;;;;;;;17.36;40.74;93571.84;5070502;28;20035;-73
2023/07/27 08:05:16;;;;;;;4.63;1.90;;;;;;;17.41;40.67;93582.28;5066853;28;20024;-73
2023/07/27 08:07:42;;;;;;;6.65;2.03;;;;;;;17.47;40.30;93588.13;5068724;28;20036;-73
2023/07/27 08:10:07;;;;;;;4.93;1.42;;;;;;;17.25;39.29;93556.72;5069282;28;20517;-74
2023/07/27 08:12:33;;;;;;;3.80;1.73;;;;;;;17.44;40.08;93599.63;5069419;28;20044;-73
2023/07/27 08:14:58;;;;;;;6.72;1.70;;;;;;;17.29;40.46;93600.53;5069030;28;20024;-73
2023/07/27 08:17:26;;;;;;;2.97;1.20;;;;;;;17.29;40.04;93592.47;5066740;28;20428;-74
2023/07/27 08:19:52;;;;;;;3.72;1.58;;;;;;;17.17;40.35;93561.97;5066295;28;20032;-73
2023/07/27 08:22:17;;;;;;;9.95;1.92;;;;;;;17.38;40.56;93584.94;5068989;28;20043;-74
2023/07/27 08:24:43;;;;;;;2.47;1.60;;;;;;;17.53;40.30;93584.78;5066967;28;20052;-73
2023/07/27 08:27:08;;;;;;;4.05;2.17;;;;;;;17.60;40.17;93587.56;5068115;28;20402;-73
2023/07/27 08:29:33;;;;;;;8.02;1.90;;;;;;;17.59;39.76;93585.25;5067060;28;20204;-73
2023/07/27 08:31:59;;;;;;;8.75;1.52;;;;;;;17.29;39.71;93581.72;5067954;28;20040;-73
2023/07/27 08:34:24;;;;;;;8.20;2.30;;;;;;;17.24;40.33;93595.47;5066616;28;20057;-73
2023/07/27 08:36:51;;;;;;;8.82;1.80;;;;;;;16.96;40.94;93583.09;5070262;28;20036;-73
2023/07/27 08:39:17;;;;;;;13.88;2.95;;;;;;;17.04;40.66;93603.56;5067844;28;20550;-73
2023/07/27 08:41:43;;;;;;;1.92;1.50;;;;;;;17.02;41.43;93592.38;5067364;28;20077;-73
2023/07/27 08:44:08;;;;;;;3.00;1.67;;;;;;;17.13;42.16;93611.38;5069719;28;20491;-73
2023/07/27 08:46:34;;;;;;;6.40;1.40;;;;;;;17.11;42.02;93619.78;5066047;28;20040;-74
2023/07/27 08:49:01;;;;;;;4.07;1.65;;;;;;;17.26;40.65;93609.34;5065945;28;20047;-74
2023/07/27 08:51:29;;;;;;;3.95;1.70;;;;;;;17.38;40.17;93622.56;5068308;28;20436;-73
2023/07/27 08:53:55;;;;;;;5.82;2.05;;;;;;;16.97;39.67;93614.19;5067859;28;20097;-75
2023/07/27 08:56:20;;;;;;;2.95;1.55;;;;;;;17.13;40.06;93620.25;5067378;28;20490;-73
2023/07/27 08:58:46;;;;;;;8.25;1.73;;;;;;;17.00;40.10;93607.31;5065081;28;20146;-73
2023/07/27 09:01:13;;;;;;;4.50;1.40;;;;;;;17.10;40.32;93610.19;5068347;28;20039;-73
2023/07/27 09:03:42;;;;;;;2.50;1.55;;;;;;;17.03;40.20;93602.00;5067980;28;20036;-74
2023/07/27 09:06:07;;;;;;;3.50;1.83;;;;;;;16.96;41.33;93607.28;5066872;28;20513;-74
2023/07/27 09:08:33;;;;;;;4.03;1.33;;;;;;;17.07;40.05;93594.78;5068465;28;20203;-74
2023/07/27 09:11:07;;;;;;;9.60;1.77;;;;;;;17.03;40.28;93599.31;5065963;28;20520;-73
2023/07/27 09:13:33;;;;;;;5.82;1.40;;;;;;;17.06;40.33;93576.34;5068716;28;20097;-74
2023/07/27 09:16:00;;;;;;;4.70;1.35;;;;;;;17.13;40.24;93585.31;5064789;28;20024;-71
2023/07/27 09:18:26;;;;;;;3.33;1.23;;;;;;;17.29;40.71;93595.16;5066874;28;20038;-74
2023/07/27 09:20:51;;;;;;;2.22;1.25;;;;;;;17.27;39.99;93597.41;5065148;28;20036;-73
2023/07/27 09:23:21;;;;;;;4.65;1.38;;;;;;;17.20;40.60;93584.66;5069686;28;20052;-73
2023/07/27 09:25:56;;;;;;;4.00;1.80;;;;;;;17.34;41.24;93589.47;5061592;28;20043;-73
2023/07/27 09:28:28;;;;;;;3.97;1.17;;;;;;;17.48;40.67;93608.53;5067516;28;20048;-73
2023/07/27 09:30:59;;;;;;;2.78;1.40;;;;;;;17.38;40.27;93612.59;5062867;28;20036;-72
2023/07/27 09:33:24;;;;;;;2.78;1.20;;;;;;;17.35;40.42;93617.94;5069124;28;21028;-73
2023/07/27 09:35:50;;;;;;;1.27;1.00;;;;;;;17.32;41.00;93618.63;5066015;28;20073;-73
2023/07/27 09:38:15;;;;;;;4.20;1.50;;;;;;;17.33;40.96;93588.72;5067824;28;20039;-72
2023/07/27 09:40:41;;;;;;;3.80;1.55;;;;;;;17.47;40.41;93625.78;5066054;28;20107;-73
2023/07/27 09:43:07;;;;;;;3.10;1.65;;;;;;;17.57;39.99;93622.47;5064950;28;20117;-73
2023/07/27 09:45:39;;;;;;;7.00;1.70;;;;;;;17.66;39.67;93606.09;5066537;28;20109;-73
2023/07/27 09:48:05;;;;;;;2.88;1.50;;;;;;;17.40;39.11;93625.69;5067451;28;20093;-73
2023/07/27 09:50:34;;;;;;;2.50;1.33;;;;;;;17.36;39.30;93630.19;5067519;28;20077;-73
2023/07/27 09:53:01;;;;;;;5.50;1.83;;;;;;;17.41;39.45;93632.59;5064372;28;20340;-72
2023/07/27 09:55:30;;;;;;;4.90;1.50;;;;;;;17.33;40.14;93625.56;5069272;28;20264;-73
2023/07/27 09:57:57;;;;;;;2.65;1.45;;;;;;;17.38;40.07;93620.66;5064869;28;20036;-73
2023/07/27 10:00:22;;;;;;;2.67;1.60;;;;;;;17.52;40.38;93626.25;5070628;28;20540;-74
2023/07/27 10:02:48;;;;;;;8.98;2.58;;;;;;;17.57;40.19;93623.25;5065516;28;20306;-73
2023/07/27 10:05:13;;;;;;;4.00;1.80;;;;;;;17.32;39.75;93597.13;5066424;28;20303;-73
2023/07/27 10:07:41;;;;;;;5.00;1.77;;;;;;;17.41;39.66;93621.84;5064803;28;20032;-72
2023/07/27 10:10:34;;;;;;;3.53;1.50;;;;;;;17.54;38.56;93618.63;5062230;28;20044;-73
2023/07/27 10:13:11;;;;;;;6.65;1.50;;;;;;;17.64;39.35;93617.22;5063929;28;20048;-73
2023/07/27 10:15:41;;;;;;;11.80;1.90;;;;;;;17.58;37.81;93626.72;5064380;28;20173;-74
2023/07/27 10:18:08;;;;;;;8.38;2.45;;;;;;;17.57;37.99;93615.19;5065393;28;20423;-73
2023/07/27 10:20:34;;;;;;;7.63;2.92;;;;;;;17.63;38.83;93594.16;5068651;28;20051;-73
2023/07/27 10:23:20;;;;;;;4.50;1.65;;;;;;;17.83;38.68;93614.44;5064128;28;20063;-73
2023/07/27 10:28:29;;;;;;;;;;;;;;;17.88;37.33;93603.34;5067678;28;20158;-74
2023/07/27 10:31:13;;;;;;;3.05;1.55;;;;;;;17.97;37.43;93605.78;5064705;28;19973;-74
2023/07/27 10:33:39;;;;;;;26.95;3.15;;;;;;;18.03;36.60;93610.50;5066151;28;20116;-73
2023/07/27 10:36:04;;;;;;;3.22;1.85;;;;;;;17.74;37.13;93608.53;5066280;28;20550;-73
2023/07/27 10:38:33;;;;;;;3.20;2.25;;;;;;;17.82;37.01;93623.63;5067630;28;20036;-73
2023/07/27 10:41:14;;;;;;;2.80;1.50;;;;;;;17.94;36.97;93615.34;5063836;28;20048;-74
2023/07/27 10:44:06;;;;;;;3.15;1.85;;;;;;;18.02;37.98;93600.88;5066601;28;20051;-73
2023/07/27 10:46:32;;;;;;;1.85;1.58;;;;;;;18.19;37.05;93607.63;5065901;28;20032;-74
2023/07/27 10:49:06;;;;;;;3.33;1.75;;;;;;;18.33;36.15;93610.47;5062907;28;20137;-73
2023/07/27 10:51:32;;;;;;;4.07;2.05;;;;;;;18.42;36.02;93604.84;5068184;28;20554;-74
2023/07/27 10:53:58;;;;;;;1.75;1.40;;;;;;;18.50;36.53;93611.06;5063569;28;20044;-73
2023/07/27 10:56:24;;;;;;;7.60;2.03;;;;;;;18.40;35.94;93604.41;5064277;28;20797;-73
2023/07/27 10:58:53;;;;;;;12.75;1.90;;;;;;;18.37;36.39;93591.69;5063828;28;20387;-73
2023/07/27 11:01:18;;;;;;;3.92;2.15;;;;;;;18.46;36.49;93600.25;5072822;28;20040;-73
2023/07/27 11:03:44;;;;;;;2.38;1.70;;;;;;;18.29;36.56;93579.28;5064920;28;20514;-74
2023/07/27 11:06:10;;;;;;;7.25;1.70;;;;;;;18.41;36.10;93587.13;5066001;28;20119;-74
2023/07/27 11:08:37;;;;;;;5.57;2.00;;;;;;;18.36;36.36;93579.38;5064920;28;20368;-73
2023/07/27 11:11:19;;;;;;;6.40;1.70;;;;;;;18.28;37.47;93545.44;5065897;28;20052;-74
2023/07/27 11:13:45;;;;;;;5.75;1.80;;;;;;;18.64;36.71;93590.44;5081705;28;20594;-74
2023/07/27 11:16:13;;;;;;;2.38;1.92;;;;;;;18.70;36.45;93591.72;5074821;28;20042;-74
2023/07/27 11:18:38;;;;;;;4.65;3.05;;;;;;;18.81;36.63;93587.22;5065907;28;20050;-74
2023/07/27 11:21:04;;;;;;;3.03;1.60;;;;;;;18.89;36.03;93586.13;5064796;28;20579;-73
2023/07/27 11:23:30;;;;;;;2.28;1.63;;;;;;;18.80;35.41;93582.97;5070234;28;20454;-72
2023/07/27 11:25:56;;;;;;;3.83;1.60;;;;;;;18.70;35.23;93588.19;5068111;28;20040;-72
2023/07/27 11:28:22;;;;;;;3.38;1.88;;;;;;;18.66;35.88;93598.94;5067714;28;20032;-72
2023/07/27 11:30:52;;;;;;;3.45;1.85;;;;;;;18.68;35.83;93580.47;5070591;28;20046;-74
2023/07/27 11:33:20;;;;;;;2.65;2.10;;;;;;;18.77;35.58;93594.47;5069333;28;20052;-74
2023/07/27 11:35:47;;;;;;;1.98;1.88;;;;;;;18.78;36.44;93593.31;5065449;28;20089;-73